Ash Springs, Nevada
Current Conditions -  °F | °C
As of 11:35 AM on Sunday 23 Nov 2014 (Local Time) from KSGU Reporting Station
Clear Clear  
Wind Chill: 54°   Ceiling: Unl
Heat Index: 54°   Visibility: 10mi
Dew Point: 16°   Wind: 8mph
Humidity: 22%   Direction: 270°W
Pressure: 30.25"   Gusts: NA
Location:  37.6°N, 114.8°W
Report Text: KSGU 231935Z AUTO 27007KT 10SM CLR 12/M09 A3025 RMK AO1
Loading
Personal Weather Stations






























Interactive Weather Map New forecast layout! Learn more

10-Day Weather Forecast

Advertisements
Track Severe Weather on mobile